Time;durP1;ratioP1;P1;durP2;ratioP2;P2;SDS_P1;SDS_P2;PMS_P1;PMS_P2;Temp;Humidity;BMP_temperature;BMP_pressure;BME280_temperature;BME280_humidity;BME280_pressure;Samples;Min_cycle;Max_cycle;Signal;HPM_P1;HPM_P2
2022/08/26 00:00:44;;;;;;;;;;;17.90;99.90;;;;;;5094377;28;19920;-71
2022/08/26 00:03:11;;;;;;;;;;;17.80;99.90;;;;;;5094362;28;19915;-72
2022/08/26 00:05:38;;;;;;;;;;;17.80;99.90;;;;;;5092890;28;20318;-72
2022/08/26 00:08:03;;;;;;;;;;;17.80;99.90;;;;;;5094605;28;20003;-73
2022/08/26 00:10:29;;;;;;;;;;;17.80;99.90;;;;;;5094001;28;19985;-73
2022/08/26 00:12:55;;;;;;;;;;;17.80;99.90;;;;;;5094592;28;19920;-72
2022/08/26 00:15:20;;;;;;;;;;;17.70;99.90;;;;;;5094172;28;19908;-72
2022/08/26 00:17:47;;;;;;;;;;;17.70;99.90;;;;;;5093172;28;19947;-72
2022/08/26 00:20:14;;;;;;;;;;;17.70;99.90;;;;;;5093103;28;20307;-72
2022/08/26 00:22:40;;;;;;;;;;;17.70;99.90;;;;;;5093476;28;19912;-73
2022/08/26 00:25:05;;;;;;;;;;;17.70;99.90;;;;;;5092793;28;19915;-73
2022/08/26 00:27:34;;;;;;;;;;;17.60;99.90;;;;;;5093373;28;19912;-72
2022/08/26 00:30:00;;;;;;;;;;;17.60;99.90;;;;;;5094078;28;19914;-72
2022/08/26 00:32:26;;;;;;;;;;;17.60;99.90;;;;;;5093942;28;19955;-73
2022/08/26 00:34:51;;;;;;;;;;;17.60;99.90;;;;;;5092533;28;19920;-72
2022/08/26 00:37:17;;;;;;;;;;;17.60;99.90;;;;;;5093395;28;20357;-73
2022/08/26 00:39:43;;;;;;;;;;;17.60;99.90;;;;;;5093527;28;19912;-72
2022/08/26 00:42:08;;;;;;;;;;;17.60;99.90;;;;;;5093141;28;19923;-72
2022/08/26 00:44:34;;;;;;;;;;;17.70;99.90;;;;;;5093186;28;19904;-73
2022/08/26 00:47:01;;;;;;;;;;;17.60;99.90;;;;;;5093649;28;19990;-72
2022/08/26 00:49:34;;;;;;;;;;;17.60;99.90;;;;;;5092940;28;19962;-73
2022/08/26 00:52:01;;;;;;;;;;;17.60;99.90;;;;;;5093708;28;19908;-72
2022/08/26 00:54:30;;;;;;;;;;;17.60;99.90;;;;;;5093130;28;19914;-72
2022/08/26 00:56:58;;;;;;;;;;;17.60;99.90;;;;;;5093549;28;19915;-72
2022/08/26 00:59:24;;;;;;;;;;;17.50;99.90;;;;;;5093172;28;19908;-72
2022/08/26 01:01:50;;;;;;;;;;;17.50;99.90;;;;;;5093051;28;19916;-72
2022/08/26 01:04:18;;;;;;;;;;;17.50;99.90;;;;;;5093115;28;19912;-74
2022/08/26 01:06:44;;;;;;;;;;;17.50;99.90;;;;;;5093253;28;19909;-73
2022/08/26 01:09:10;;;;;;;;;;;17.30;99.90;;;;;;5093403;28;19919;-72
2022/08/26 01:11:36;;;;;;;;;;;17.30;99.90;;;;;;5091526;28;19919;-73
2022/08/26 01:14:03;;;;;;;;;;;17.20;99.90;;;;;;5093247;28;20269;-72
2022/08/26 01:16:28;;;;;;;;;;;17.20;99.90;;;;;;5091436;28;19916;-73
2022/08/26 01:18:58;;;;;;;;;;;17.20;99.90;;;;;;5093663;28;19908;-72
2022/08/26 01:21:27;;;;;;;;;;;17.10;99.90;;;;;;5092115;28;20060;-73
2022/08/26 01:23:53;;;;;;;;;;;16.90;99.90;;;;;;5092938;28;19993;-72
2022/08/26 01:26:21;;;;;;;;;;;16.80;99.90;;;;;;5092468;28;19912;-72
2022/08/26 01:28:48;;;;;;;;;;;16.80;99.90;;;;;;5092872;28;20002;-73
2022/08/26 01:31:14;;;;;;;;;;;16.70;99.90;;;;;;5092807;28;20273;-73
2022/08/26 01:33:46;;;;;;;;;;;16.70;99.90;;;;;;5091995;28;20419;-72
2022/08/26 01:36:13;;;;;;;;;;;16.60;99.90;;;;;;5093323;28;19952;-73
2022/08/26 01:38:39;;;;;;;;;;;16.60;99.90;;;;;;5092566;28;19915;-72
2022/08/26 01:41:06;;;;;;;;;;;16.50;99.90;;;;;;5092375;28;19915;-72
2022/08/26 01:43:32;;;;;;;;;;;16.50;99.90;;;;;;5091032;28;19918;-72
2022/08/26 01:45:59;;;;;;;;;;;16.50;99.90;;;;;;5093118;28;20020;-72
2022/08/26 01:48:27;;;;;;;;;;;16.50;99.90;;;;;;5092405;28;20413;-72
2022/08/26 01:50:53;;;;;;;;;;;16.50;99.90;;;;;;5092618;28;20391;-72
2022/08/26 01:53:20;;;;;;;;;;;16.50;99.90;;;;;;5092396;28;19908;-72
2022/08/26 01:55:47;;;;;;;;;;;16.50;99.90;;;;;;5092685;28;20349;-72
2022/08/26 01:58:16;;;;;;;;;;;16.50;99.90;;;;;;5092762;28;19922;-72
2022/08/26 02:00:42;;;;;;;;;;;16.60;99.90;;;;;;5091298;28;19912;-72
2022/08/26 02:03:17;;;;;;;;;;;16.60;99.90;;;;;;5092274;28;19951;-72
2022/08/26 02:05:47;;;;;;;;;;;16.70;99.90;;;;;;5092855;28;20002;-73
2022/08/26 02:08:13;;;;;;;;;;;16.70;99.90;;;;;;5092611;28;20383;-72
2022/08/26 02:10:39;;;;;;;;;;;16.70;99.90;;;;;;5092246;28;19909;-73
2022/08/26 02:13:06;;;;;;;;;;;16.70;99.90;;;;;;5092711;28;20007;-72
2022/08/26 02:15:33;;;;;;;;;;;16.80;99.90;;;;;;5092142;28;19912;-72
2022/08/26 02:17:59;;;;;;;;;;;16.70;99.90;;;;;;5091538;28;19961;-72
2022/08/26 02:20:25;;;;;;;;;;;16.70;99.90;;;;;;5092126;28;19912;-72
2022/08/26 02:22:51;;;;;;;;;;;16.80;99.90;;;;;;5091843;28;20460;-72
2022/08/26 02:25:26;;;;;;;;;;;16.80;99.90;;;;;;5092113;28;19955;-73
2022/08/26 02:27:53;;;;;;;;;;;16.70;99.90;;;;;;5092392;28;20338;-72
2022/08/26 02:30:21;;;;;;;;;;;16.70;99.90;;;;;;5090748;28;19908;-72
2022/08/26 02:32:47;;;;;;;;;;;16.80;99.90;;;;;;5092344;28;19936;-72
2022/08/26 02:35:13;;;;;;;;;;;16.70;99.90;;;;;;5092040;28;20357;-72
2022/08/26 02:37:39;;;;;;;;;;;16.70;99.90;;;;;;5092315;28;19995;-73
2022/08/26 02:40:05;;;;;;;;;;;16.70;99.90;;;;;;5092797;28;19966;-73
2022/08/26 02:42:31;;;;;;;;;;;16.70;99.90;;;;;;5090767;28;19912;-74
2022/08/26 02:44:57;;;;;;;;;;;16.70;99.90;;;;;;5091111;28;19908;-73
2022/08/26 02:47:24;;;;;;;;;;;16.60;99.90;;;;;;5095577;28;20364;-74
2022/08/26 02:49:50;;;;;;;;;;;16.60;99.90;;;;;;5096340;28;19994;-73
2022/08/26 02:52:16;;;;;;;;;;;16.60;99.90;;;;;;5095642;28;19909;-74
2022/08/26 02:54:42;;;;;;;;;;;16.50;99.90;;;;;;5096188;28;20046;-72
2022/08/26 02:57:08;;;;;;;;;;;16.60;99.90;;;;;;5096184;28;20004;-72
2022/08/26 02:59:34;;;;;;;;;;;16.60;99.90;;;;;;5095142;28;20700;-72
2022/08/26 03:02:00;;;;;;;;;;;16.60;99.90;;;;;;5095320;28;19923;-72
2022/08/26 03:04:26;;;;;;;;;;;16.60;99.90;;;;;;5095306;28;20288;-72
2022/08/26 03:06:52;;;;;;;;;;;16.60;99.90;;;;;;5095873;28;20367;-73
2022/08/26 03:09:17;;;;;;;;;;;16.60;99.90;;;;;;5128102;27;19908;-74
2022/08/26 03:11:45;;;;;;;;;;;16.60;99.90;;;;;;5095642;28;19912;-73
2022/08/26 03:14:10;;;;;;;;;;;16.60;99.90;;;;;;5095713;28;20250;-73
2022/08/26 03:16:36;;;;;;;;;;;16.60;99.90;;;;;;5094911;28;19908;-73
2022/08/26 03:19:02;;;;;;;;;;;16.70;99.90;;;;;;5095555;28;19912;-73
2022/08/26 03:21:28;;;;;;;;;;;16.70;99.90;;;;;;5094509;28;20345;-73
2022/08/26 03:23:53;;;;;;;;;;;16.70;99.90;;;;;;5095379;28;19916;-72
2022/08/26 03:26:19;;;;;;;;;;;16.70;99.90;;;;;;5094968;28;19912;-74
2022/08/26 03:31:29;;;;;;;;;;;16.60;99.90;;;;;;5094652;28;20380;-73
2022/08/26 03:33:54;;;;;;;;;;;16.60;99.90;;;;;;5095083;28;19920;-72
2022/08/26 03:36:21;;;;;;;;;;;16.60;99.90;;;;;;5094840;28;20426;-73
2022/08/26 03:38:46;;;;;;;;;;;16.60;99.90;;;;;;5095300;28;19912;-73
2022/08/26 03:41:12;;;;;;;;;;;16.50;99.90;;;;;;5094660;28;20003;-73
2022/08/26 03:43:38;;;;;;;;;;;16.50;99.90;;;;;;5093608;28;19912;-73
2022/08/26 03:46:04;;;;;;;;;;;16.50;99.90;;;;;;5095156;28;20306;-73
2022/08/26 03:48:30;;;;;;;;;;;16.50;99.90;;;;;;5094368;28;20487;-73
2022/08/26 03:50:55;;;;;;;;;;;16.40;99.90;;;;;;5095099;28;19945;-73
2022/08/26 03:53:22;;;;;;;;;;;16.50;99.90;;;;;;5094752;28;19912;-73
2022/08/26 03:55:48;;;;;;;;;;;16.40;99.90;;;;;;5094909;28;19989;-73
2022/08/26 03:58:13;;;;;;;;;;;16.30;99.90;;;;;;5094390;28;20319;-73
2022/08/26 04:00:39;;;;;;;;;;;16.30;99.90;;;;;;5094737;28;19919;-73
2022/08/26 04:03:04;;;;;;;;;;;16.30;99.90;;;;;;5094035;28;19951;-73
2022/08/26 04:05:30;;;;;;;;;;;16.20;99.90;;;;;;5094113;28;19961;-73
2022/08/26 04:07:56;;;;;;;;;;;16.30;99.90;;;;;;5094728;28;20333;-73
2022/08/26 04:10:23;;;;;;;;;;;16.30;99.90;;;;;;5094110;28;19920;-74
2022/08/26 04:12:49;;;;;;;;;;;16.10;99.90;;;;;;5094529;28;20345;-74
2022/08/26 04:15:15;;;;;;;;;;;16.10;99.90;;;;;;5094295;28;19908;-74
2022/08/26 04:17:41;;;;;;;;;;;16.00;99.90;;;;;;5094105;28;20013;-74
2022/08/26 04:20:07;;;;;;;;;;;16.00;99.90;;;;;;5094459;28;19915;-74
2022/08/26 04:22:33;;;;;;;;;;;15.90;99.90;;;;;;5093132;28;20322;-74
2022/08/26 04:24:58;;;;;;;;;;;15.80;99.90;;;;;;5095822;28;19908;-73
2022/08/26 04:27:24;;;;;;;;;;;15.70;99.90;;;;;;5093486;28;20269;-73
2022/08/26 04:29:49;;;;;;;;;;;15.70;99.90;;;;;;5094264;28;19961;-73
2022/08/26 04:32:15;;;;;;;;;;;15.60;99.90;;;;;;5093637;28;20365;-73
2022/08/26 04:34:41;;;;;;;;;;;15.60;99.90;;;;;;5093881;28;20015;-73
2022/08/26 04:37:07;;;;;;;;;;;15.70;99.90;;;;;;5094193;28;20429;-73
2022/08/26 04:39:32;;;;;;;;;;;15.60;99.90;;;;;;5093524;28;19923;-73
2022/08/26 04:41:58;;;;;;;;;;;15.60;99.90;;;;;;5126480;27;20284;-73
2022/08/26 04:44:26;;;;;;;;;;;15.60;99.90;;;;;;5093041;28;20117;-73
2022/08/26 04:46:51;;;;;;;;;;;15.60;99.90;;;;;;5094094;28;19912;-73
2022/08/26 04:49:18;;;;;;;;;;;15.60;99.90;;;;;;5093223;28;20357;-73
2022/08/26 04:51:43;;;;;;;;;;;15.60;99.90;;;;;;5093918;28;19971;-73
2022/08/26 04:54:09;;;;;;;;;;;15.60;99.90;;;;;;5093885;28;19915;-73
2022/08/26 04:56:39;;;;;;;;;;;15.50;99.90;;;;;;5092967;28;19920;-73
2022/08/26 04:59:06;;;;;;;;;;;15.50;99.90;;;;;;5093495;28;20434;-73
2022/08/26 05:01:32;;;;;;;;;;;15.60;99.90;;;;;;5092909;28;19985;-73
2022/08/26 05:03:58;;;;;;;;;;;15.50;99.90;;;;;;5091759;28;19912;-73
2022/08/26 05:06:24;;;;;;;;;;;15.50;99.90;;;;;;5093050;28;19915;-72
2022/08/26 05:08:50;;;;;;;;;;;15.50;99.90;;;;;;5092954;28;19908;-73
2022/08/26 05:11:16;;;;;;;;;;;15.50;99.90;;;;;;5092981;28;19908;-73
2022/08/26 05:13:41;;;;;;;;;;;15.50;99.90;;;;;;5093523;28;20281;-72
2022/08/26 05:16:09;;;;;;;;;;;15.60;99.90;;;;;;5093356;28;19951;-72
2022/08/26 05:18:35;;;;;;;;;;;15.60;99.90;;;;;;5093148;28;19964;-73
2022/08/26 05:21:03;;;;;;;;;;;15.60;99.90;;;;;;5093578;28;19966;-73
2022/08/26 05:23:30;;;;;;;;;;;15.50;99.90;;;;;;5091865;28;19912;-72
2022/08/26 05:25:57;;;;;;;;;;;15.60;99.90;;;;;;5093318;28;19969;-73
2022/08/26 05:28:23;;;;;;;;;;;15.50;99.90;;;;;;5092693;28;19919;-73
2022/08/26 05:30:50;;;;;;;;;;;15.50;99.90;;;;;;5126429;27;19909;-72
2022/08/26 05:33:16;;;;;;;;;;;15.50;99.90;;;;;;5093065;28;20002;-73
2022/08/26 05:35:43;;;;;;;;;;;15.50;99.90;;;;;;5093232;28;20016;-72
2022/08/26 05:38:10;;;;;;;;;;;15.50;99.90;;;;;;5092839;28;19908;-73
2022/08/26 05:40:37;;;;;;;;;;;15.50;99.90;;;;;;5092479;28;20007;-73
2022/08/26 05:43:09;;;;;;;;;;;15.50;99.90;;;;;;5092359;28;19965;-72
2022/08/26 05:45:39;;;;;;;;;;;15.60;99.90;;;;;;5092363;28;19912;-73
2022/08/26 05:48:08;;;;;;;;;;;15.60;99.90;;;;;;5092999;28;19987;-73
2022/08/26 05:50:38;;;;;;;;;;;15.60;99.90;;;;;;5092325;28;20026;-72
2022/08/26 05:53:04;;;;;;;;;;;15.60;99.90;;;;;;5092892;28;19912;-73
2022/08/26 05:55:29;;;;;;;;;;;15.60;99.90;;;;;;5091120;28;19909;-73
2022/08/26 05:57:55;;;;;;;;;;;15.70;99.90;;;;;;5092885;28;20238;-73
2022/08/26 06:00:21;;;;;;;;;;;15.70;99.90;;;;;;5092070;28;19923;-74
2022/08/26 06:02:46;;;;;;;;;;;15.70;99.90;;;;;;5092278;28;19913;-73
2022/08/26 06:05:12;;;;;;;;;;;15.70;99.90;;;;;;5092393;28;19956;-73
2022/08/26 06:10:21;;;;;;;;;;;15.80;99.90;;;;;;5092402;28;19958;-73
2022/08/26 06:12:47;;;;;;;;;;;15.70;99.90;;;;;;5092644;28;19943;-73
2022/08/26 06:15:13;;;;;;;;;;;15.80;99.90;;;;;;5092582;28;19912;-73
2022/08/26 06:17:39;;;;;;;;;;;15.80;99.90;;;;;;5090779;28;19953;-73
2022/08/26 06:20:05;;;;;;;;;;;15.70;99.90;;;;;;5094194;28;19908;-73
2022/08/26 06:27:59;;;;;;;;;;;15.60;99.90;;;;;;5096572;28;20372;-73
2022/08/26 06:30:25;;;;;;;;;;;15.70;99.90;;;;;;5095713;28;19908;-74
2022/08/26 06:32:50;;;;;;;;;;;15.70;99.90;;;;;;5096903;28;19915;-73
2022/08/26 06:35:16;;;;;;;;;;;15.60;99.90;;;;;;5095839;28;19927;-74
2022/08/26 06:37:42;;;;;;;;;;;15.60;99.90;;;;;;5096446;28;19964;-73
2022/08/26 06:40:08;;;;;;;;;;;15.50;99.90;;;;;;5094606;28;20037;-73
2022/08/26 06:42:33;;;;;;;;;;;15.40;99.90;;;;;;5095292;28;19935;-73
2022/08/26 06:45:00;;;;;;;;;;;15.50;99.90;;;;;;5095434;28;19951;-73
2022/08/26 06:47:26;;;;;;;;;;;15.50;99.90;;;;;;5095363;28;20327;-74
2022/08/26 06:49:51;;;;;;;;;;;15.50;99.90;;;;;;5095967;28;19931;-74
2022/08/26 06:52:17;;;;;;;;;;;15.50;99.90;;;;;;5095575;28;20342;-73
2022/08/26 06:54:42;;;;;;;;;;;15.50;99.90;;;;;;5095585;28;19965;-73
2022/08/26 06:57:09;;;;;;;;;;;15.50;99.90;;;;;;5095976;28;20349;-73
2022/08/26 06:59:35;;;;;;;;;;;15.40;99.90;;;;;;5095122;28;19919;-73
2022/08/26 07:02:01;;;;;;;;;;;15.40;99.90;;;;;;5095940;28;20010;-72
2022/08/26 07:04:26;;;;;;;;;;;15.40;99.90;;;;;;5094408;28;20369;-73
2022/08/26 07:06:52;;;;;;;;;;;15.40;99.90;;;;;;5095710;28;19915;-72
2022/08/26 07:09:18;;;;;;;;;;;15.50;99.90;;;;;;5095148;28;19969;-73
2022/08/26 07:11:44;;;;;;;;;;;15.60;99.90;;;;;;5094478;28;19969;-73
2022/08/26 07:14:10;;;;;;;;;;;15.50;99.90;;;;;;5095624;28;20357;-73
2022/08/26 07:16:35;;;;;;;;;;;15.50;99.90;;;;;;5094642;28;19908;-73
2022/08/26 07:19:02;;;;;;;;;;;15.50;99.90;;;;;;5095491;28;19908;-73
2022/08/26 07:21:27;;;;;;;;;;;15.60;99.90;;;;;;5094858;28;19963;-73
2022/08/26 07:23:53;;;;;;;;;;;15.50;99.90;;;;;;5094747;28;19966;-72
2022/08/26 07:26:26;;;;;;;;;;;15.60;99.90;;;;;;5094888;28;20367;-73
2022/08/26 07:28:55;;;;;;;;;;;15.40;99.90;;;;;;5095136;28;20011;-73
2022/08/26 07:31:21;;;;;;;;;;;15.50;99.90;;;;;;5093668;28;19908;-73
2022/08/26 07:33:47;;;;;;;;;;;15.60;99.90;;;;;;5095496;28;20412;-73
2022/08/26 07:36:13;;;;;;;;;;;15.60;99.90;;;;;;5095313;28;20004;-73
2022/08/26 07:38:39;;;;;;;;;;;15.60;99.90;;;;;;5093105;28;19908;-73
2022/08/26 07:41:05;;;;;;;;;;;15.50;99.90;;;;;;5095121;28;20405;-73
2022/08/26 07:43:31;;;;;;;;;;;15.50;99.90;;;;;;5093802;28;19919;-73
2022/08/26 07:45:56;;;;;;;;;;;15.50;99.90;;;;;;5095123;28;19915;-73
2022/08/26 07:48:22;;;;;;;;;;;15.70;99.90;;;;;;5127425;27;20512;-73
2022/08/26 07:50:48;;;;;;;;;;;15.70;99.90;;;;;;5094969;28;20007;-73
2022/08/26 07:53:14;;;;;;;;;;;15.70;99.90;;;;;;5094736;28;20338;-73
2022/08/26 07:55:39;;;;;;;;;;;15.60;99.90;;;;;;5093922;28;19908;-73
2022/08/26 07:58:05;;;;;;;;;;;15.50;99.90;;;;;;5093627;28;19908;-72
2022/08/26 08:00:31;;;;;;;;;;;15.50;99.90;;;;;;5094075;28;19912;-72
2022/08/26 08:03:00;;;;;;;;;;;15.60;99.90;;;;;;5094390;28;19951;-71
2022/08/26 08:05:26;;;;;;;;;;;15.60;99.90;;;;;;5094168;28;20324;-73
2022/08/26 08:07:51;;;;;;;;;;;15.70;99.90;;;;;;5094874;28;19950;-73
2022/08/26 08:10:19;;;;;;;;;;;15.60;99.90;;;;;;5094318;28;19957;-74
2022/08/26 08:12:45;;;;;;;;;;;15.60;99.90;;;;;;5094233;28;19908;-72
2022/08/26 08:15:14;;;;;;;;;;;15.60;99.90;;;;;;5094421;28;19995;-72
2022/08/26 08:17:42;;;;;;;;;;;15.70;99.90;;;;;;5125788;27;20261;-72
2022/08/26 08:20:08;;;;;;;;;;;15.70;99.90;;;;;;5094342;28;19959;-73
2022/08/26 08:22:34;;;;;;;;;;;15.80;99.90;;;;;;5093278;28;20459;-72
2022/08/26 08:25:00;;;;;;;;;;;15.90;99.90;;;;;;5094049;28;19940;-73
2022/08/26 08:27:25;;;;;;;;;;;15.80;99.90;;;;;;5093580;28;19908;-73
2022/08/26 08:29:55;;;;;;;;;;;15.90;99.90;;;;;;5094210;28;19965;-73
2022/08/26 08:32:21;;;;;;;;;;;15.90;99.90;;;;;;5093583;28;19908;-73
2022/08/26 08:34:46;;;;;;;;;;;15.90;99.90;;;;;;5093521;28;19926;-73
2022/08/26 08:37:12;;;;;;;;;;;16.00;99.90;;;;;;5093596;28;19963;-72
2022/08/26 08:39:37;;;;;;;;;;;16.00;99.90;;;;;;5126397;27;20711;-73
2022/08/26 08:42:22;;;;;;;;;;;16.10;99.90;;;;;;5093446;28;19920;-73
2022/08/26 08:44:49;;;;;;;;;;;16.00;99.90;;;;;;5092579;28;19912;-72
2022/08/26 08:47:30;;;;;;;;;;;16.00;99.90;;;;;;5093779;28;20394;-72
2022/08/26 08:49:59;;;;;;;;;;;16.10;99.90;;;;;;5093740;28;19915;-73
2022/08/26 08:52:30;;;;;;;;;;;16.20;99.90;;;;;;5093288;28;20418;-73
2022/08/26 08:54:56;;;;;;;;;;;16.10;99.90;;;;;;5093715;28;19908;-72
2022/08/26 08:57:30;;;;;;;;;;;16.20;99.90;;;;;;5093423;28;19916;-73
2022/08/26 09:00:07;;;;;;;;;;;16.10;99.90;;;;;;5092156;28;19908;-74
2022/08/26 09:02:37;;;;;;;;;;;16.20;99.90;;;;;;5093028;28;19959;-73
2022/08/26 09:05:11;;;;;;;;;;;16.20;99.90;;;;;;5092923;28;20444;-74
2022/08/26 09:07:46;;;;;;;;;;;16.20;99.90;;;;;;5092527;28;19905;-74
2022/08/26 09:10:30;;;;;;;;;;;16.30;99.90;;;;;;5093480;28;20002;-73
2022/08/26 09:12:55;;;;;;;;;;;16.50;99.90;;;;;;5093470;28;20225;-74
2022/08/26 09:15:40;;;;;;;;;;;16.40;99.90;;;;;;5092981;28;19996;-74
2022/08/26 09:18:08;;;;;;;;;;;16.30;99.90;;;;;;5092726;28;20353;-74
2022/08/26 09:20:34;;;;;;;;;;;16.40;99.90;;;;;;5093080;28;19999;-74
2022/08/26 09:22:59;;;;;;;;;;;16.40;99.90;;;;;;5092684;28;20001;-73
2022/08/26 09:25:25;;;;;;;;;;;16.50;99.90;;;;;;5092277;28;19950;-73
2022/08/26 09:27:52;;;;;;;;;;;16.40;99.90;;;;;;5092590;28;19916;-73
2022/08/26 09:30:24;;;;;;;;;;;16.30;99.90;;;;;;5092518;28;19910;-73
2022/08/26 09:33:07;;;;;;;;;;;16.40;99.90;;;;;;5092309;28;19908;-73
2022/08/26 09:35:34;;;;;;;;;;;16.40;99.90;;;;;;5091990;28;19939;-73
2022/08/26 09:38:00;;;;;;;;;;;16.50;99.90;;;;;;5092374;28;19915;-74
2022/08/26 09:40:30;;;;;;;;;;;16.50;99.90;;;;;;5091763;28;19908;-73
2022/08/26 09:43:05;;;;;;;;;;;16.40;99.90;;;;;;5092930;28;19913;-73
2022/08/26 09:45:30;;;;;;;;;;;16.30;99.90;;;;;;5091937;28;19931;-73
2022/08/26 09:47:57;;;;;;;;;;;16.50;99.90;;;;;;5092024;28;20769;-72
2022/08/26 09:50:28;;;;;;;;;;;16.50;99.90;;;;;;5091790;28;19908;-73
2022/08/26 09:53:13;;;;;;;;;;;16.60;99.90;;;;;;5091249;28;19909;-73
2022/08/26 09:55:40;;;;;;;;;;;16.70;99.90;;;;;;5091214;28;20489;-73
2022/08/26 09:58:07;;;;;;;;;;;16.70;99.90;;;;;;5092389;28;20353;-73
2022/08/26 10:00:35;;;;;;;;;;;16.80;99.90;;;;;;5091656;28;19916;-73
2022/08/26 10:03:02;;;;;;;;;;;16.80;99.90;;;;;;5092153;28;19912;-73
2022/08/26 10:05:34;;;;;;;;;;;16.60;99.90;;;;;;5091885;28;20387;-73
2022/08/26 10:08:13;;;;;;;;;;;16.60;99.90;;;;;;5092285;28;19948;-73
2022/08/26 10:10:39;;;;;;;;;;;16.50;99.90;;;;;;5091561;28;20408;-73
2022/08/26 10:13:12;;;;;;;;;;;16.50;99.90;;;;;;5091039;28;19908;-73
2022/08/26 10:15:41;;;;;;;;;;;16.50;99.90;;;;;;5091422;28;19908;-73
2022/08/26 10:18:27;;;;;;;;;;;16.40;99.90;;;;;;5092481;28;19972;-73
2022/08/26 10:21:01;;;;;;;;;;;16.40;99.90;;;;;;5090346;28;20015;-73
2022/08/26 10:23:28;;;;;;;;;;;16.50;99.90;;;;;;5092204;28;19920;-73
2022/08/26 10:26:02;;;;;;;;;;;16.60;99.90;;;;;;5092720;28;19955;-74
2022/08/26 10:28:31;;;;;;;;;;;16.70;99.90;;;;;;5092147;28;20379;-74
2022/08/26 10:31:20;;;;;;;;;;;16.70;99.90;;;;;;5092352;28;20010;-74
2022/08/26 10:33:45;;;;;;;;;;;16.80;99.90;;;;;;5088692;28;20361;-74
2022/08/26 10:36:48;;;;;;;;;;;17.00;99.90;;;;;;5092687;28;19928;-74
2022/08/26 10:39:02;;;;;;;;;;;17.10;99.90;;;;;;5092176;28;19962;-75
2022/08/26 10:41:30;;;;;;;;;;;17.10;99.90;;;;;;5091704;28;19912;-75
2022/08/26 10:43:57;;;;;;;;;;;17.10;99.90;;;;;;5092727;28;19994;-74
2022/08/26 10:46:27;;;;;;;;;;;17.10;99.90;;;;;;5092256;28;19997;-74
2022/08/26 10:48:56;;;;;;;;;;;17.00;99.90;;;;;;5092419;28;19931;-75
2022/08/26 10:51:25;;;;;;;;;;;17.00;99.90;;;;;;5092222;28;19951;-75
2022/08/26 10:53:51;;;;;;;;;;;17.00;99.90;;;;;;5092294;28;20364;-74
2022/08/26 10:56:35;;;;;;;;;;;17.00;99.90;;;;;;5092389;28;19930;-74
2022/08/26 10:59:19;;;;;;;;;;;17.00;99.90;;;;;;5092442;28;19915;-74
2022/08/26 11:01:45;;;;;;;;;;;16.90;99.90;;;;;;5091823;28;19939;-74
2022/08/26 11:04:10;;;;;;;;;;;16.80;99.90;;;;;;5092018;28;19912;-75
2022/08/26 11:06:36;;;;;;;;;;;16.80;99.90;;;;;;5092656;28;20276;-75
2022/08/26 11:09:03;;;;;;;;;;;16.80;99.90;;;;;;5095656;28;19908;-74
2022/08/26 11:11:38;;;;;;;;;;;16.90;99.90;;;;;;5094890;28;19914;-75
2022/08/26 11:14:05;;;;;;;;;;;16.90;99.90;;;;;;5093004;28;20380;-75
2022/08/26 11:16:33;;;;;;;;;;;16.90;99.90;;;;;;5079007;28;19908;-75
2022/08/26 11:18:58;;;;;;;;;;;17.00;99.90;;;;;;5075295;28;19916;-74
2022/08/26 11:21:43;;;;;;;;;;;17.10;99.90;;;;;;5074861;28;19924;-76
2022/08/26 11:24:28;;;;;;;;;;;17.20;99.90;;;;;;5075367;28;19943;-75
2022/08/26 11:26:54;;;;;;;;;;;17.20;99.90;;;;;;5075121;28;19920;-74
2022/08/26 11:29:40;;;;;;;;;;;17.20;99.90;;;;;;5075284;28;19908;-74
2022/08/26 11:32:22;;;;;;;;;;;17.20;99.90;;;;;;5074958;28;20361;-74
2022/08/26 11:35:06;;;;;;;;;;;17.30;99.90;;;;;;5074210;28;19999;-74
2022/08/26 11:37:53;;;;;;;;;;;17.30;99.90;;;;;;5074508;28;19913;-75
2022/08/26 11:40:25;;;;;;;;;;;17.30;99.90;;;;;;5074654;28;20404;-74
2022/08/26 11:42:56;;;;;;;;;;;17.30;99.90;;;;;;5074427;28;19927;-74
2022/08/26 11:45:23;;;;;;;;;;;17.40;99.90;;;;;;5074595;28;19970;-75
2022/08/26 11:47:49;;;;;;;;;;;17.30;99.90;;;;;;5073022;28;19915;-74
2022/08/26 11:50:20;;;;;;;;;;;17.40;99.90;;;;;;5074846;28;19912;-74
2022/08/26 11:52:50;;;;;;;;;;;17.50;99.90;;;;;;5072960;28;19916;-74
2022/08/26 11:55:15;;;;;;;;;;;17.70;99.90;;;;;;5074655;28;19999;-74
2022/08/26 11:57:46;;;;;;;;;;;17.80;99.90;;;;;;5074069;28;19943;-74
2022/08/26 12:00:23;;;;;;;;;;;17.90;99.90;;;;;;5074395;28;20354;-74
2022/08/26 12:02:49;;;;;;;;;;;17.90;99.90;;;;;;5074005;28;19920;-74
2022/08/26 12:05:19;;;;;;;;;;;18.00;99.90;;;;;;5074563;28;19954;-74
2022/08/26 12:07:47;;;;;;;;;;;18.00;99.90;;;;;;5073803;28;19908;-74
2022/08/26 12:10:23;;;;;;;;;;;17.90;99.90;;;;;;5073065;28;19970;-74
2022/08/26 12:12:53;;;;;;;;;;;17.80;99.90;;;;;;5073758;28;19935;-74
2022/08/26 12:15:21;;;;;;;;;;;17.80;99.90;;;;;;5074241;28;19958;-74
2022/08/26 12:17:48;;;;;;;;;;;17.90;99.90;;;;;;5073387;28;19912;-75
2022/08/26 12:20:29;;;;;;;;;;;17.90;99.90;;;;;;5073943;28;19958;-75
2022/08/26 12:22:57;;;;;;;;;;;18.00;99.90;;;;;;5073951;28;20379;-75
2022/08/26 12:25:24;;;;;;;;;;;18.10;99.90;;;;;;5073920;28;20277;-74
2022/08/26 12:27:50;;;;;;;;;;;18.10;99.90;;;;;;5072122;28;19909;-74
2022/08/26 12:30:18;;;;;;;;;;;18.00;99.90;;;;;;5073540;28;19915;-74
2022/08/26 12:32:49;;;;;;;;;;;18.00;99.90;;;;;;5073106;28;19908;-74
2022/08/26 12:35:16;;;;;;;;;;;18.20;99.90;;;;;;5073299;28;19920;-74
2022/08/26 12:37:43;;;;;;;;;;;18.50;99.90;;;;;;5073316;28;20358;-75
2022/08/26 12:40:27;;;;;;;;;;;18.60;99.90;;;;;;5073599;28;20361;-74
2022/08/26 12:42:53;;;;;;;;;;;18.60;99.90;;;;;;5073071;28;19920;-74
2022/08/26 12:45:27;;;;;;;;;;;18.50;99.90;;;;;;5073599;28;19915;-74
2022/08/26 12:47:55;;;;;;;;;;;18.40;99.90;;;;;;5072798;28;19912;-74
2022/08/26 12:50:28;;;;;;;;;;;18.30;99.90;;;;;;5073119;28;20393;-74
2022/08/26 12:52:59;;;;;;;;;;;18.10;99.90;;;;;;5073417;28;19912;-75
2022/08/26 12:55:36;;;;;;;;;;;18.00;99.90;;;;;;5072715;28;19956;-74
2022/08/26 12:58:31;;;;;;;;;;;17.90;99.90;;;;;;5072812;28;20321;-74
2022/08/26 13:01:03;;;;;;;;;;;17.90;99.90;;;;;;5068055;28;20382;-74
2022/08/26 13:03:37;;;;;;;;;;;18.00;99.90;;;;;;5072544;28;20020;-74
2022/08/26 13:06:21;;;;;;;;;;;18.10;99.90;;;;;;5072761;28;19912;-74
2022/08/26 13:09:05;;;;;;;;;;;18.20;99.90;;;;;;5072121;28;19909;-74
2022/08/26 13:11:32;;;;;;;;;;;18.30;99.90;;;;;;5072663;28;19909;-75
2022/08/26 13:14:02;;;;;;;;;;;18.50;99.90;;;;;;5071020;28;19909;-74
2022/08/26 13:16:28;;;;;;;;;;;18.60;99.90;;;;;;5071104;28;20270;-74
2022/08/26 13:19:07;;;;;;;;;;;18.50;99.90;;;;;;5071906;28;19945;-75
2022/08/26 13:21:33;;;;;;;;;;;18.70;99.90;;;;;;5072116;28;19912;-75
2022/08/26 13:24:23;;;;;;;;;;;18.70;99.90;;;;;;5072425;28;19912;-75
2022/08/26 13:26:48;;;;;;;;;;;18.80;99.90;;;;;;5068440;28;19915;-74
2022/08/26 13:29:14;;;;;;;;;;;19.00;99.90;;;;;;5071561;28;19908;-75
2022/08/26 13:31:42;;;;;;;;;;;19.00;99.90;;;;;;5071744;28;19908;-72
2022/08/26 13:34:09;;;;;;;;;;;19.10;99.90;;;;;;5071805;28;20369;-73
2022/08/26 13:36:35;;;;;;;;;;;19.10;99.90;;;;;;5071161;28;19954;-73
2022/08/26 13:39:00;;;;;;;;;;;19.10;99.90;;;;;;5071875;28;19912;-73
2022/08/26 13:41:26;;;;;;;;;;;19.10;99.90;;;;;;5072463;28;20396;-71
2022/08/26 13:43:52;;;;;;;;;;;19.20;99.90;;;;;;5104352;28;19919;-73
2022/08/26 13:46:19;;;;;;;;;;;19.30;99.90;;;;;;5104873;28;19999;-73
2022/08/26 13:48:45;;;;;;;;;;;19.40;99.90;;;;;;5071720;28;19908;-72
2022/08/26 13:51:11;;;;;;;;;;;19.50;99.90;;;;;;5071842;28;19909;-73
2022/08/26 13:53:36;;;;;;;;;;;19.50;99.90;;;;;;5071358;28;19916;-73
2022/08/26 13:56:02;;;;;;;;;;;19.40;99.90;;;;;;5072608;28;19908;-73
2022/08/26 13:58:28;;;;;;;;;;;19.30;99.90;;;;;;5072260;28;20014;-74
2022/08/26 14:00:54;;;;;;;;;;;19.40;99.90;;;;;;5071695;28;20010;-73
2022/08/26 14:03:20;;;;;;;;;;;19.40;99.90;;;;;;5072700;28;19912;-74
2022/08/26 14:05:45;;;;;;;;;;;19.40;99.90;;;;;;5071962;28;20062;-74
2022/08/26 14:08:11;;;;;;;;;;;19.50;99.90;;;;;;5072075;28;19912;-73
2022/08/26 14:10:36;;;;;;;;;;;19.60;99.90;;;;;;5071620;28;19909;-74
2022/08/26 14:13:02;;;;;;;;;;;19.60;99.90;;;;;;5071993;28;20001;-74
2022/08/26 14:15:30;;;;;;;;;;;19.70;99.90;;;;;;5072263;28;20281;-74
2022/08/26 14:17:56;;;;;;;;;;;19.70;99.90;;;;;;5071613;28;20387;-74
2022/08/26 14:20:26;;;;;;;;;;;19.60;99.90;;;;;;5072359;28;19912;-73
2022/08/26 14:22:52;;;;;;;;;;;19.70;99.90;;;;;;5071381;28;19919;-75
2022/08/26 14:25:18;;;;;;;;;;;19.60;99.90;;;;;;5072147;28;20261;-74
2022/08/26 14:27:43;;;;;;;;;;;19.50;99.90;;;;;;5070890;28;19912;-75
2022/08/26 14:30:10;;;;;;;;;;;19.40;99.90;;;;;;5071876;28;19914;-74
2022/08/26 14:32:37;;;;;;;;;;;19.40;99.90;;;;;;5071771;28;19962;-74